Slighs, South Carolina
Current Conditions -  °F | °C
As of 10:55 AM on Wednesday 28 Jan 2015 (Local Time) from KEOE Reporting Station
Clear Clear  
Wind Chill: 34°   Ceiling: Unl
Heat Index: 39°   Visibility: 10mi
Dew Point: 16°   Wind: 8mph
Humidity: 39%   Direction: 360°N
Pressure: 30.32"   Gusts: NA
Location:  34.1808°N, 81.5344°W
Report Text: KEOE 281555Z AUTO 36007KT 10SM CLR 04/M09 A3032 RMK AO2
Loading
Personal Weather Stations






























Interactive Weather Map New forecast layout! Learn more

10-Day Weather Forecast

Advertisements
Track Severe Weather on mobile